Time;durP1;ratioP1;P1;durP2;ratioP2;P2;SDS_P1;SDS_P2;PMS_P1;PMS_P2;Temp;Humidity;BMP_temperature;BMP_pressure;BME280_temperature;BME280_humidity;BME280_pressure;Samples;Min_cycle;Max_cycle;Signal;HPM_P1;HPM_P2
2023/10/10 00:00:57;;;;;;;11.20;3.60;;;12.70;99.90;;;;;;4996209;28;20034;-74
2023/10/10 00:03:26;;;;;;;9.55;3.22;;;12.70;99.90;;;;;;4996352;28;20022;-74
2023/10/10 00:05:53;;;;;;;7.47;3.30;;;12.70;99.90;;;;;;4996410;28;20597;-74
2023/10/10 00:08:20;;;;;;;11.77;3.38;;;12.70;99.90;;;;;;4996514;28;20406;-74
2023/10/10 00:10:50;;;;;;;9.68;3.20;;;12.70;99.90;;;;;;4996366;28;20030;-74
2023/10/10 00:13:20;;;;;;;10.25;3.72;;;12.70;99.90;;;;;;4996474;28;20483;-74
2023/10/10 00:15:51;;;;;;;8.50;3.33;;;12.70;99.90;;;;;;4996119;28;20049;-74
2023/10/10 00:18:20;;;;;;;9.90;3.45;;;12.70;99.90;;;;;;4996044;28;20022;-74
2023/10/10 00:21:06;;;;;;;10.13;3.65;;;12.70;99.90;;;;;;4996219;28;20390;-74
2023/10/10 00:23:38;;;;;;;12.20;3.25;;;12.70;99.90;;;;;;4981787;28;20395;-74
2023/10/10 00:26:05;;;;;;;10.05;3.25;;;12.60;99.90;;;;;;4996024;28;20042;-74
2023/10/10 00:28:34;;;;;;;9.70;3.30;;;12.60;99.90;;;;;;4978184;28;20372;-74
2023/10/10 00:31:03;;;;;;;8.73;3.88;;;12.70;99.90;;;;;;4995615;28;20030;-74
2023/10/10 00:33:31;;;;;;;9.27;3.17;;;12.70;99.90;;;;;;4995528;28;20034;-74
2023/10/10 00:35:58;;;;;;;5.55;2.60;;;12.70;99.90;;;;;;4995382;28;20038;-74
2023/10/10 00:38:29;;;;;;;9.57;3.13;;;12.70;99.90;;;;;;4995790;28;20447;-74
2023/10/10 00:40:57;;;;;;;11.15;2.90;;;12.60;99.90;;;;;;4996250;28;20029;-74
2023/10/10 00:43:24;;;;;;;8.23;3.13;;;12.60;99.90;;;;;;4997000;28;20105;-74
2023/10/10 00:45:54;;;;;;;13.57;3.58;;;12.60;99.90;;;;;;4995954;28;20026;-74
2023/10/10 00:48:29;;;;;;;10.63;3.00;;;12.60;99.90;;;;;;4995940;28;20033;-74
2023/10/10 00:51:05;;;;;;;8.60;2.75;;;12.50;99.90;;;;;;4978377;28;20030;-74
2023/10/10 00:53:33;;;;;;;7.80;2.90;;;12.50;99.90;;;;;;4996066;28;20023;-74
2023/10/10 00:56:00;;;;;;;12.50;3.47;;;12.50;99.90;;;;;;4995739;28;20034;-74
2023/10/10 00:58:36;;;;;;;10.10;3.60;;;12.50;99.90;;;;;;4995698;28;20027;-74
2023/10/10 01:01:14;;;;;;;9.73;3.05;;;12.60;99.90;;;;;;4995949;28;20018;-74
2023/10/10 01:03:45;;;;;;;8.38;3.08;;;12.50;99.90;;;;;;4996408;28;20105;-74
2023/10/10 01:06:24;;;;;;;9.27;3.40;;;12.50;99.90;;;;;;4994395;28;20085;-74
2023/10/10 01:11:38;;;;;;;10.07;4.03;;;12.50;99.90;;;;;;4996008;28;20049;-74
2023/10/10 01:14:04;;;;;;;11.35;5.38;;;12.40;99.90;;;;;;4977152;28;20487;-74
2023/10/10 01:16:33;;;;;;;9.23;4.00;;;12.40;99.90;;;;;;4994127;28;20030;-74
2023/10/10 01:18:59;;;;;;;9.40;3.40;;;12.40;99.90;;;;;;4978258;28;20026;-74
2023/10/10 01:21:30;;;;;;;9.07;3.60;;;12.40;99.90;;;;;;4995047;28;20023;-74
2023/10/10 01:24:11;;;;;;;15.35;5.75;;;12.40;99.90;;;;;;4995040;28;20045;-74
2023/10/10 01:26:38;;;;;;;;;;;12.40;99.90;;;;;;4995329;28;20089;-74
2023/10/10 01:31:51;;;;;;;10.65;3.58;;;12.30;99.90;;;;;;4994902;28;20088;-74
2023/10/10 01:34:43;;;;;;;12.90;3.92;;;12.20;99.90;;;;;;4961651;28;20035;-74
2023/10/10 01:39:54;;;;;;;8.10;3.00;;;12.10;99.90;;;;;;4994426;28;20057;-74
2023/10/10 01:42:30;;;;;;;8.10;2.75;;;12.10;99.90;;;;;;4994033;28;20022;-74
2023/10/10 01:45:07;;;;;;;9.13;3.00;;;12.10;99.90;;;;;;4994960;28;20033;-74
2023/10/10 01:47:34;;;;;;;8.40;3.17;;;12.10;99.90;;;;;;4994776;28;20453;-74
2023/10/10 01:50:08;;;;;;;8.93;2.90;;;12.10;99.90;;;;;;4995283;28;20046;-74
2023/10/10 01:52:41;;;;;;;8.60;3.28;;;12.00;99.90;;;;;;4977169;28;20101;-74
2023/10/10 01:55:10;;;;;;;9.65;2.83;;;12.00;99.90;;;;;;4994741;28;20460;-74
2023/10/10 01:57:35;;;;;;;8.10;3.17;;;12.00;99.90;;;;;;4977227;28;20031;-74
2023/10/10 02:00:19;;;;;;;8.13;2.75;;;12.00;99.90;;;;;;4977541;28;20364;-74
2023/10/10 02:02:45;;;;;;;6.60;2.65;;;12.00;99.90;;;;;;4979441;28;20034;-74
2023/10/10 02:05:13;;;;;;;9.32;3.20;;;11.90;99.90;;;;;;4993961;28;20030;-74
2023/10/10 02:07:39;;;;;;;15.68;6.40;;;11.90;99.90;;;;;;4994415;28;20018;-74
2023/10/10 02:10:13;;;;;;;13.57;6.60;;;11.90;99.90;;;;;;4994657;28;20521;-74
2023/10/10 02:12:45;;;;;;;12.43;6.18;;;11.80;99.90;;;;;;4994225;28;20042;-74
2023/10/10 02:15:13;;;;;;;12.93;5.22;;;11.70;99.90;;;;;;4994195;28;20026;-74
2023/10/10 02:17:40;;;;;;;13.02;5.40;;;11.60;99.90;;;;;;4977499;28;20022;-74
2023/10/10 02:22:54;;;;;;;9.77;5.32;;;11.60;99.90;;;;;;4994047;28;20026;-74
2023/10/10 02:27:55;;;;;;;14.05;4.95;;;11.50;99.90;;;;;;4994429;28;20483;-74
2023/10/10 02:30:34;;;;;;;12.07;4.53;;;11.50;99.90;;;;;;4994153;28;20033;-74
2023/10/10 02:33:14;;;;;;;7.30;3.38;;;11.40;99.90;;;;;;4994116;28;20021;-74
2023/10/10 02:35:56;;;;;;;8.95;3.33;;;11.40;99.90;;;;;;4993939;28;20033;-74
2023/10/10 02:38:23;;;;;;;8.77;3.53;;;11.40;99.90;;;;;;4994052;28;20057;-74
2023/10/10 02:41:04;;;;;;;10.57;3.85;;;11.40;99.90;;;;;;4993929;28;20050;-74
2023/10/10 02:43:33;;;;;;;5.28;2.97;;;11.50;99.90;;;;;;4991662;28;20030;-74
2023/10/10 02:46:00;;;;;;;8.30;3.03;;;11.50;99.90;;;;;;4976808;28;20034;-74
2023/10/10 02:48:27;;;;;;;7.18;3.00;;;11.50;99.90;;;;;;4993912;28;20027;-74
2023/10/10 02:50:53;;;;;;;10.45;2.75;;;11.50;99.90;;;;;;4994181;28;20026;-74
2023/10/10 02:53:19;;;;;;;8.68;2.90;;;11.50;99.90;;;;;;4994149;28;20026;-74
2023/10/10 02:55:51;;;;;;;7.95;3.33;;;11.50;99.90;;;;;;4993690;28;20515;-74
2023/10/10 02:58:21;;;;;;;10.43;2.90;;;11.50;99.90;;;;;;4993911;28;20471;-74
2023/10/10 03:00:52;;;;;;;8.05;2.97;;;11.50;99.90;;;;;;4993816;28;20023;-74
2023/10/10 03:03:20;;;;;;;7.97;2.58;;;11.50;99.90;;;;;;4993805;28;20023;-74
2023/10/10 03:06:06;;;;;;;6.38;3.08;;;11.50;99.90;;;;;;4993290;28;20026;-74
2023/10/10 03:08:34;;;;;;;9.02;2.97;;;11.50;99.90;;;;;;4992183;28;20026;-74
2023/10/10 03:11:02;;;;;;;9.10;3.15;;;11.50;99.90;;;;;;4990633;28;20054;-74
2023/10/10 03:13:35;;;;;;;9.93;2.80;;;11.50;99.90;;;;;;4993203;28;20026;-74
2023/10/10 03:25:06;;;;;;;8.93;3.28;;;11.20;99.90;;;;;;4993775;28;20106;-74
2023/10/10 03:27:11;;;;;;;12.88;3.67;;;11.20;99.90;;;;;;4985371;28;20050;-74
2023/10/10 03:29:47;;;;;;;10.45;3.65;;;11.00;99.90;;;;;;4993875;28;20022;-74
2023/10/10 03:32:59;;;;;;;10.13;3.78;;;11.00;99.90;;;;;;4993572;28;20101;-74
2023/10/10 03:35:13;;;;;;;9.23;3.47;;;10.90;99.90;;;;;;4991192;28;20030;-74
2023/10/10 03:37:53;;;;;;;7.22;2.95;;;10.80;99.90;;;;;;4997482;28;20363;-74
2023/10/10 03:41:12;;;;;;;9.43;3.95;;;10.80;99.90;;;;;;4997230;28;20038;-74
2023/10/10 05:24:51;;;;;;;12.57;6.22;;;10.30;99.90;;;;;;4995537;28;20041;-73
2023/10/10 05:27:29;;;;;;;14.75;5.80;;;10.30;99.90;;;;;;4995795;28;20121;-73
2023/10/10 05:29:55;;;;;;;12.40;5.00;;;10.30;99.90;;;;;;4995387;28;20057;-72
2023/10/10 05:32:22;;;;;;;10.95;5.70;;;10.30;99.90;;;;;;4995066;28;20065;-72
2023/10/10 05:34:49;;;;;;;10.30;5.85;;;10.30;99.90;;;;;;4994812;28;20036;-73
2023/10/10 05:37:15;;;;;;;12.60;5.18;;;10.30;99.90;;;;;;4977397;28;20034;-73
2023/10/10 05:39:41;;;;;;;20.40;8.60;;;10.30;99.90;;;;;;4994921;28;20030;-73
2023/10/10 05:42:08;;;;;;;16.08;7.53;;;10.30;99.90;;;;;;4994054;28;20029;-73
2023/10/10 05:44:38;;;;;;;14.57;7.15;;;10.30;99.90;;;;;;5011222;28;20034;-73
2023/10/10 05:47:06;;;;;;;12.90;5.20;;;10.40;99.90;;;;;;4978713;28;20045;-72
2023/10/10 05:49:32;;;;;;;9.82;4.35;;;10.40;99.90;;;;;;4994773;28;20462;-72
2023/10/10 05:51:58;;;;;;;13.60;4.10;;;10.30;99.90;;;;;;4995089;28;20030;-73
2023/10/10 05:54:24;;;;;;;10.60;3.70;;;10.30;99.90;;;;;;4994634;28;20096;-73
2023/10/10 05:56:50;;;;;;;11.13;4.68;;;10.30;99.90;;;;;;4994826;28;20090;-73
2023/10/10 05:59:16;;;;;;;11.48;3.97;;;10.30;99.90;;;;;;4994312;28;20027;-73
2023/10/10 06:01:43;;;;;;;15.15;4.47;;;10.30;99.90;;;;;;4994787;28;20475;-72
2023/10/10 06:04:08;;;;;;;16.00;4.50;;;10.30;99.90;;;;;;4994525;28;20104;-73
2023/10/10 06:06:35;;;;;;;9.60;3.72;;;10.30;99.90;;;;;;4977176;28;20081;-72
2023/10/10 06:09:01;;;;;;;7.43;3.65;;;10.30;99.90;;;;;;4994981;28;20030;-73
2023/10/10 06:11:29;;;;;;;9.52;3.47;;;10.30;99.90;;;;;;4977190;28;20037;-73
2023/10/10 06:13:55;;;;;;;10.00;3.03;;;10.40;99.90;;;;;;4994587;28;20034;-73
2023/10/10 06:16:23;;;;;;;8.18;3.50;;;10.40;99.90;;;;;;4994273;28;20487;-73
2023/10/10 06:18:50;;;;;;;10.30;4.05;;;10.40;99.90;;;;;;4994871;28;20123;-73
2023/10/10 06:21:16;;;;;;;11.25;3.28;;;10.40;99.90;;;;;;4994242;28;20149;-73
2023/10/10 06:23:44;;;;;;;12.00;3.60;;;10.40;99.90;;;;;;4994147;28;20030;-73
2023/10/10 06:26:12;;;;;;;13.48;4.15;;;10.30;99.90;;;;;;4976093;28;20407;-73
2023/10/10 06:28:47;;;;;;;8.23;3.08;;;10.40;99.90;;;;;;4994183;28;20434;-73
2023/10/10 06:31:19;;;;;;;11.63;4.30;;;10.40;99.90;;;;;;4994457;28;20081;-73
2023/10/10 06:33:50;;;;;;;14.73;4.07;;;10.50;99.90;;;;;;4994402;28;20030;-73
2023/10/10 06:41:39;;;;;;;13.60;4.25;;;10.50;99.90;;;;;;4993923;28;20023;-73
2023/10/10 06:44:12;;;;;;;11.35;4.38;;;10.60;99.90;;;;;;4994277;28;20054;-73
2023/10/10 06:46:40;;;;;;;14.45;4.82;;;10.60;99.90;;;;;;4994455;28;20475;-73
2023/10/10 06:49:06;;;;;;;9.32;4.70;;;10.70;99.90;;;;;;4992112;28;20033;-73
2023/10/10 06:51:41;;;;;;;12.35;4.88;;;10.70;99.90;;;;;;4994001;28;20065;-73
2023/10/10 06:54:27;;;;;;;12.60;4.60;;;10.70;99.90;;;;;;4994150;28;20077;-73
2023/10/10 06:59:27;;;;;;;13.15;4.32;;;10.90;99.90;;;;;;4994211;28;20027;-73
2023/10/10 07:01:59;;;;;;;15.48;4.70;;;10.90;99.90;;;;;;4994347;28;20027;-73
2023/10/10 07:04:27;;;;;;;14.70;5.38;;;11.00;99.90;;;;;;4993853;28;20023;-73
2023/10/10 07:06:54;;;;;;;13.60;4.28;;;11.00;99.90;;;;;;4993705;28;20030;-73
2023/10/10 07:09:29;;;;;;;11.05;4.60;;;11.00;99.90;;;;;;4993801;28;20030;-73
2023/10/10 07:11:56;;;;;;;8.80;4.03;;;11.10;99.90;;;;;;4996307;28;20438;-73
2023/10/10 07:14:25;;;;;;;9.10;4.50;;;11.10;99.90;;;;;;4997944;28;20034;-72
2023/10/10 07:16:54;;;;;;;10.32;4.28;;;11.20;99.90;;;;;;4997518;28;20022;-73
2023/10/10 07:19:22;;;;;;;13.10;4.20;;;11.20;99.90;;;;;;4997552;28;20033;-73
2023/10/10 07:21:50;;;;;;;8.77;4.45;;;11.30;99.90;;;;;;4998102;28;20029;-73
2023/10/10 07:24:17;;;;;;;9.05;4.72;;;11.30;99.90;;;;;;4997815;28;20023;-73
2023/10/10 07:26:43;;;;;;;10.90;4.65;;;11.40;99.90;;;;;;4997325;28;20038;-72
2023/10/10 07:29:27;;;;;;;10.77;4.38;;;11.40;99.90;;;;;;4997486;28;20109;-73
2023/10/10 07:32:16;;;;;;;10.55;5.03;;;11.50;99.90;;;;;;4997413;28;20434;-73
2023/10/10 07:34:42;;;;;;;6.60;3.70;;;11.50;99.90;;;;;;4997558;28;20196;-73
2023/10/10 07:37:14;;;;;;;12.27;5.20;;;11.60;99.90;;;;;;4997238;28;20085;-73
2023/10/10 07:39:55;;;;;;;10.18;4.88;;;11.60;99.90;;;;;;4997233;28;20026;-73
2023/10/10 07:42:29;;;;;;;13.27;4.90;;;11.70;99.90;;;;;;4997189;28;20034;-73
2023/10/10 07:44:57;;;;;;;10.60;4.78;;;11.80;99.90;;;;;;4979568;28;20030;-73
2023/10/10 07:47:26;;;;;;;11.38;4.28;;;11.80;99.90;;;;;;4997085;28;20081;-73
2023/10/10 07:49:56;;;;;;;11.65;4.70;;;11.90;99.90;;;;;;4997054;28;20034;-72
2023/10/10 07:52:22;;;;;;;11.43;4.32;;;11.90;99.90;;;;;;4997009;28;20036;-73
2023/10/10 07:54:51;;;;;;;8.05;4.07;;;12.00;99.90;;;;;;4996883;28;20022;-73
2023/10/10 07:57:22;;;;;;;11.75;5.03;;;12.10;99.90;;;;;;4996864;28;20031;-73
2023/10/10 07:59:58;;;;;;;14.02;5.40;;;12.10;99.90;;;;;;4997188;28;20019;-72
2023/10/10 08:02:24;;;;;;;9.40;4.60;;;12.20;99.90;;;;;;4996837;28;20023;-73
2023/10/10 08:04:54;;;;;;;11.40;4.85;;;12.20;99.90;;;;;;4996692;28;20031;-73
2023/10/10 08:07:20;;;;;;;14.35;5.22;;;12.30;99.90;;;;;;4996755;28;20053;-73
2023/10/10 08:09:48;;;;;;;16.95;5.88;;;12.30;99.90;;;;;;4996977;28;20491;-73
2023/10/10 08:12:15;;;;;;;14.60;6.03;;;12.50;99.90;;;;;;4996538;28;20026;-72
2023/10/10 08:14:41;;;;;;;12.07;4.97;;;12.50;99.90;;;;;;4996427;28;20026;-72
2023/10/10 08:17:19;;;;;;;15.27;5.53;;;12.60;99.90;;;;;;4996519;28;20026;-72
2023/10/10 08:19:50;;;;;;;9.88;4.68;;;12.80;99.90;;;;;;4996497;28;20027;-73
2023/10/10 08:22:18;;;;;;;13.55;5.03;;;12.90;99.90;;;;;;4979540;28;20026;-72
2023/10/10 08:24:43;;;;;;;11.40;4.85;;;13.00;99.90;;;;;;4996230;28;20060;-73
2023/10/10 08:27:11;;;;;;;15.18;5.70;;;13.20;99.90;;;;;;4996723;28;20038;-73
2023/10/10 08:29:38;;;;;;;20.65;5.60;;;13.30;99.90;;;;;;4996564;28;20037;-73
2023/10/10 08:32:05;;;;;;;13.13;5.03;;;13.50;99.90;;;;;;4979182;28;20058;-73
2023/10/10 08:34:31;;;;;;;13.45;5.85;;;13.60;99.90;;;;;;4996698;28;20033;-73
2023/10/10 08:37:04;;;;;;;11.13;5.65;;;13.70;99.90;;;;;;4996303;28;20030;-73
2023/10/10 08:39:35;;;;;;;14.77;6.40;;;13.80;99.90;;;;;;4979097;28;20022;-72
2023/10/10 08:42:05;;;;;;;18.63;6.78;;;13.90;99.90;;;;;;4979129;28;20483;-72
2023/10/10 08:44:36;;;;;;;14.03;6.03;;;14.00;99.90;;;;;;4996440;28;20035;-72
2023/10/10 08:47:03;;;;;;;;;;;14.10;99.90;;;;;;4978869;28;20430;-72
2023/10/10 08:49:29;;;;;;;20.33;7.88;;;14.30;99.90;;;;;;4995969;28;19915;-72
2023/10/10 08:52:00;;;;;;;22.52;8.57;;;14.40;99.90;;;;;;4995896;28;20034;-72
2023/10/10 08:54:27;;;;;;;17.98;8.63;;;14.60;99.90;;;;;;4996141;28;20491;-72
2023/10/10 08:57:10;;;;;;;21.08;8.88;;;14.70;99.90;;;;;;4995655;28;20035;-72
2023/10/10 08:59:42;;;;;;;16.40;8.75;;;14.80;99.90;;;;;;4996838;28;20386;-72
2023/10/10 09:02:12;;;;;;;23.52;10.00;;;14.90;99.90;;;;;;4995983;28;20490;-72
2023/10/10 09:04:38;;;;;;;18.27;9.68;;;15.10;99.90;;;;;;4978215;28;20022;-72
2023/10/10 09:07:08;;;;;;;21.88;9.48;;;15.20;99.90;;;;;;4995596;28;20034;-72
2023/10/10 09:09:35;;;;;;;15.93;7.85;;;15.30;99.90;;;;;;4995868;28;20026;-72
2023/10/10 09:12:14;;;;;;;22.92;8.13;;;15.50;99.90;;;;;;4978071;28;20475;-72
2023/10/10 09:14:43;;;;;;;18.02;7.95;;;15.70;99.90;;;;;;4995499;28;20034;-72
2023/10/10 09:17:34;;;;;;;17.13;6.70;;;15.80;99.90;;;;;;4995366;28;20039;-72
2023/10/10 09:20:22;;;;;;;17.88;6.35;;;15.90;99.90;;;;;;4995722;28;20029;-72
2023/10/10 09:22:51;;;;;;;18.67;5.97;;;16.00;99.90;;;;;;4995415;28;20061;-72
2023/10/10 09:25:31;;;;;;;14.07;5.30;;;16.20;99.90;;;;;;4978823;28;20498;-72
2023/10/10 09:28:00;;;;;;;19.25;6.07;;;16.30;99.90;;;;;;4995598;28;20030;-72
2023/10/10 09:30:40;;;;;;;14.90;5.28;;;16.50;99.90;;;;;;4995149;28;20073;-72
2023/10/10 09:35:59;;;;;;;18.83;5.70;;;16.80;99.90;;;;;;4994779;28;20487;-72
2023/10/10 09:44:27;;;;;;;13.52;5.45;;;17.30;99.90;;;;;;4995014;28;20022;-72
2023/10/10 09:49:52;;;;;;;13.38;5.53;;;17.60;99.90;;;;;;4995193;28;20084;-72
2023/10/10 10:06:01;;;;;;;15.48;5.75;;;18.30;99.90;;;;;;4994793;28;20038;-72
2023/10/10 10:08:40;;;;;;;14.77;4.10;;;18.50;99.90;;;;;;4994834;28;20379;-72
2023/10/10 10:11:26;;;;;;;13.85;4.78;;;18.60;99.90;;;;;;4998858;28;20029;-72
2023/10/10 10:14:17;;;;;;;12.00;4.68;;;18.70;99.90;;;;;;5014196;28;20053;-72
2023/10/10 10:17:18;;;;;;;13.07;5.00;;;18.80;99.90;;;;;;5013937;28;20160;-72
2023/10/10 10:19:45;;;;;;;18.48;5.55;;;19.00;99.90;;;;;;4949492;28;20054;-71
2023/10/10 10:22:17;;;;;;;16.85;6.20;;;19.10;99.90;;;;;;5014011;28;20084;-72
2023/10/10 10:24:46;;;;;;;19.83;6.03;;;19.20;99.90;;;;;;5014277;28;20032;-72
2023/10/10 10:27:31;;;;;;;16.85;5.93;;;19.30;99.90;;;;;;5014441;28;20138;-72
2023/10/10 10:30:18;;;;;;;18.95;6.38;;;19.40;99.90;;;;;;4998998;28;20021;-71
2023/10/10 10:32:51;;;;;;;13.88;5.35;;;19.50;99.90;;;;;;5014048;28;20034;-72
2023/10/10 10:35:22;;;;;;;16.67;6.00;;;19.50;99.90;;;;;;5014005;28;20076;-72
2023/10/10 10:38:00;;;;;;;18.38;5.43;;;19.70;99.90;;;;;;5013898;28;20080;-72
2023/10/10 10:40:42;;;;;;;17.27;5.70;;;19.80;99.90;;;;;;5013648;28;20022;-71
2023/10/10 10:43:14;;;;;;;16.65;5.82;;;19.90;99.90;;;;;;5013648;28;20026;-71
2023/10/10 10:45:44;;;;;;;25.85;6.82;;;19.90;99.90;;;;;;5013171;28;20382;-71
2023/10/10 10:48:33;;;;;;;18.27;6.07;;;20.10;99.90;;;;;;5014004;28;20359;-71
2023/10/10 10:51:23;;;;;;;25.17;7.05;;;20.10;99.90;;;;;;5014046;28;20049;-71
2023/10/10 10:53:56;;;;;;;15.38;7.05;;;20.30;99.90;;;;;;5013885;28;20022;-71
2023/10/10 11:01:29;;;;;;;21.00;6.32;;;20.50;99.90;;;;;;4997187;28;20026;-72
2023/10/10 11:03:55;;;;;;;13.73;5.40;;;20.60;99.90;;;;;;5013349;28;20416;-72
2023/10/10 11:06:24;;;;;;;14.15;5.55;;;20.70;99.90;;;;;;4995614;28;20034;-71
2023/10/10 11:11:25;;;;;;;17.90;4.85;;;20.90;99.90;;;;;;5013575;28;20041;-71
2023/10/10 11:13:54;;;;;;;15.27;4.72;;;21.00;99.90;;;;;;5013151;28;20539;-71
2023/10/10 11:16:28;;;;;;;13.13;4.63;;;21.10;99.90;;;;;;5013243;28;20426;-72
2023/10/10 11:19:04;;;;;;;13.18;4.57;;;21.20;99.90;;;;;;5013350;28;20479;-71
2023/10/10 11:21:31;;;;;;;17.85;5.00;;;21.30;99.90;;;;;;5013637;28;20109;-71
2023/10/10 11:23:58;;;;;;;17.95;4.85;;;21.30;99.90;;;;;;5013704;28;20030;-72
2023/10/10 11:26:24;;;;;;;15.77;4.50;;;21.40;99.90;;;;;;4999576;28;20116;-71
2023/10/10 11:28:49;;;;;;;16.63;4.32;;;21.50;99.90;;;;;;4993455;28;20066;-72
2023/10/10 11:31:23;;;;;;;13.10;4.53;;;21.60;99.90;;;;;;4990438;28;20060;-71
2023/10/10 11:33:55;;;;;;;10.63;3.53;;;21.70;99.90;;;;;;4992738;28;20022;-71
2023/10/10 11:36:37;;;;;;;14.18;4.22;;;21.80;99.90;;;;;;4971861;28;20033;-72
2023/10/10 11:39:17;;;;;;;10.48;3.50;;;21.80;99.90;;;;;;4993482;28;20018;-71
2023/10/10 11:41:45;;;;;;;11.00;3.80;;;21.90;97.50;;;;;;4993405;28;20030;-71
2023/10/10 11:44:17;;;;;;;13.35;3.40;;;21.90;95.60;;;;;;4992608;28;20041;-71
2023/10/10 11:46:45;;;;;;;10.02;3.88;;;22.00;96.40;;;;;;4993309;28;20097;-71
2023/10/10 11:49:17;;;;;;;10.15;3.42;;;22.10;96.60;;;;;;4993342;28;20034;-71
2023/10/10 11:51:43;;;;;;;13.02;3.22;;;22.20;95.50;;;;;;4993293;28;20475;-71
2023/10/10 11:54:09;;;;;;;15.60;3.55;;;22.30;93.80;;;;;;4993283;28;20046;-71
2023/10/10 11:56:34;;;;;;;14.13;3.35;;;22.30;93.30;;;;;;4993018;28;20031;-72
2023/10/10 11:59:10;;;;;;;15.88;3.58;;;22.20;91.60;;;;;;4979480;28;20062;-72
2023/10/10 12:01:54;;;;;;;10.95;3.10;;;22.30;92.50;;;;;;4996445;28;20390;-72
2023/10/10 12:04:20;;;;;;;12.30;3.70;;;22.30;93.00;;;;;;4996943;28;20475;-72
2023/10/10 12:06:47;;;;;;;14.20;3.92;;;22.40;91.90;;;;;;4996515;28;20034;-72
2023/10/10 12:09:18;;;;;;;10.55;3.40;;;22.40;91.40;;;;;;4979398;28;20085;-72
2023/10/10 12:11:44;;;;;;;12.93;3.50;;;22.30;90.70;;;;;;4996236;28;20033;-72
2023/10/10 12:14:12;;;;;;;10.43;3.38;;;22.40;89.00;;;;;;4996021;28;20030;-71
2023/10/10 12:16:38;;;;;;;19.40;3.50;;;22.40;88.80;;;;;;4995785;28;20092;-71
2023/10/10 12:19:05;;;;;;;16.02;3.72;;;22.40;86.20;;;;;;4995992;28;20463;-71
2023/10/10 12:21:31;;;;;;;15.20;3.17;;;22.40;89.50;;;;;;4996216;28;20034;-71
2023/10/10 12:23:57;;;;;;;16.52;3.25;;;22.50;86.30;;;;;;4996911;28;20438;-71
2023/10/10 12:26:24;;;;;;;13.10;3.58;;;22.50;85.50;;;;;;4996261;28;20034;-72
2023/10/10 12:28:52;;;;;;;14.45;3.58;;;22.50;85.20;;;;;;4979187;28;20487;-72
2023/10/10 12:31:22;;;;;;;9.50;3.55;;;22.40;84.80;;;;;;4997096;28;20056;-72
2023/10/10 12:33:49;;;;;;;13.70;3.67;;;22.40;84.70;;;;;;4995774;28;20037;-71
2023/10/10 12:36:15;;;;;;;8.68;3.10;;;22.40;84.90;;;;;;4995836;28;20094;-72
2023/10/10 12:38:41;;;;;;;15.48;3.20;;;22.30;86.00;;;;;;4996027;28;20038;-72
2023/10/10 12:41:11;;;;;;;16.50;3.15;;;22.40;85.90;;;;;;4995389;28;20022;-72
2023/10/10 12:43:37;;;;;;;9.33;3.13;;;22.40;87.50;;;;;;4996311;28;20026;-72
2023/10/10 12:46:04;;;;;;;12.95;3.67;;;22.50;87.90;;;;;;4994958;28;20505;-72
2023/10/10 12:48:31;;;;;;;11.60;3.35;;;22.60;84.20;;;;;;4996049;28;20026;-72
2023/10/10 12:51:00;;;;;;;10.73;3.25;;;22.60;82.40;;;;;;4994959;28;20018;-72
2023/10/10 12:53:31;;;;;;;11.00;3.22;;;22.70;83.10;;;;;;4993915;28;20028;-72
2023/10/10 12:56:03;;;;;;;;;;;22.70;83.20;;;;;;4978255;28;20026;-72
2023/10/10 12:58:30;;;;;;;13.32;3.67;;;22.90;83.00;;;;;;4995687;28;19917;-72
2023/10/10 13:00:57;;;;;;;17.40;3.35;;;23.00;80.60;;;;;;4995169;28;20030;-72
2023/10/10 13:03:27;;;;;;;8.98;2.67;;;23.10;80.40;;;;;;4978223;28;20026;-72
2023/10/10 13:05:58;;;;;;;11.77;3.22;;;23.10;79.50;;;;;;4995118;28;20077;-73
2023/10/10 13:08:25;;;;;;;12.00;3.95;;;23.20;80.20;;;;;;4995063;28;20114;-72
2023/10/10 13:11:01;;;;;;;12.43;3.60;;;23.20;79.30;;;;;;4995203;28;20390;-72
2023/10/10 13:13:27;;;;;;;14.43;3.35;;;23.20;78.80;;;;;;4995490;28;20037;-72
2023/10/10 13:16:22;;;;;;;11.05;3.50;;;23.20;78.50;;;;;;4995279;28;20026;-72
2023/10/10 13:18:55;;;;;;;16.05;3.65;;;23.20;77.90;;;;;;4994239;28;20053;-72
2023/10/10 13:21:20;;;;;;;10.63;3.28;;;23.30;77.80;;;;;;4994506;28;20378;-72
2023/10/10 13:23:47;;;;;;;11.98;2.83;;;23.30;78.30;;;;;;4993697;28;20061;-72
2023/10/10 13:26:13;;;;;;;14.80;3.25;;;23.20;76.50;;;;;;4994817;28;20046;-72
2023/10/10 13:28:44;;;;;;;11.75;3.20;;;23.30;75.10;;;;;;4994802;28;20027;-72
2023/10/10 13:31:11;;;;;;;14.35;3.08;;;23.20;75.30;;;;;;4993708;28;20093;-72
2023/10/10 13:33:39;;;;;;;11.05;3.33;;;23.20;75.50;;;;;;4994937;28;20023;-72
2023/10/10 13:36:05;;;;;;;10.05;3.10;;;23.20;77.20;;;;;;4994534;28;20030;-72
2023/10/10 13:38:31;;;;;;;14.00;3.75;;;23.20;76.90;;;;;;4994676;28;20058;-72
2023/10/10 13:41:01;;;;;;;12.70;3.28;;;23.20;77.50;;;;;;4994800;28;20117;-72
2023/10/10 13:43:30;;;;;;;13.63;3.37;;;23.20;78.10;;;;;;4978505;28;20018;-72
2023/10/10 13:45:57;;;;;;;18.80;3.47;;;23.10;78.10;;;;;;4994653;28;20117;-72
2023/10/10 13:48:24;;;;;;;11.52;3.70;;;23.10;75.30;;;;;;4994659;28;20471;-72
2023/10/10 13:50:56;;;;;;;7.80;3.08;;;23.00;76.40;;;;;;4994521;28;20041;-73
2023/10/10 13:53:21;;;;;;;12.93;3.40;;;22.90;76.70;;;;;;4993697;28;20030;-72
2023/10/10 13:55:47;;;;;;;13.73;3.33;;;22.90;77.00;;;;;;4994445;28;20485;-72
2023/10/10 13:58:13;;;;;;;10.40;3.05;;;22.80;77.70;;;;;;4995707;28;20037;-75
2023/10/10 14:00:52;;;;;;;10.48;2.90;;;22.80;79.00;;;;;;4994150;28;20023;-73
2023/10/10 14:03:28;;;;;;;10.85;2.80;;;22.80;78.00;;;;;;4994704;28;20391;-72
2023/10/10 14:06:00;;;;;;;10.77;2.80;;;22.80;80.90;;;;;;4993245;28;20033;-73
2023/10/10 14:08:27;;;;;;;12.77;3.22;;;22.90;78.00;;;;;;4976400;28;20080;-72
2023/10/10 14:10:54;;;;;;;13.95;3.20;;;23.00;77.00;;;;;;4993844;28;20034;-72
2023/10/10 14:13:20;;;;;;;15.23;3.42;;;23.00;76.90;;;;;;4992724;28;20034;-72
2023/10/10 14:15:56;;;;;;;12.48;3.40;;;23.00;75.30;;;;;;4993875;28;20030;-72
2023/10/10 14:18:30;;;;;;;9.45;3.15;;;23.00;76.50;;;;;;4994502;28;20479;-72
2023/10/10 14:21:00;;;;;;;14.10;3.17;;;23.00;77.40;;;;;;4994373;28;20126;-72
2023/10/10 14:23:27;;;;;;;;;;;22.90;74.50;;;;;;4994786;28;20027;-72
2023/10/10 14:26:12;;;;;;;14.80;3.22;;;22.90;74.90;;;;;;4994112;28;20298;-72
2023/10/10 14:28:41;;;;;;;8.35;2.90;;;22.90;75.20;;;;;;4994843;28;20053;-72
2023/10/10 14:31:13;;;;;;;10.43;2.90;;;22.90;76.20;;;;;;4994207;28;20034;-72
2023/10/10 14:33:40;;;;;;;13.07;2.88;;;22.90;76.80;;;;;;4994173;28;20031;-72
2023/10/10 14:36:11;;;;;;;10.15;3.30;;;22.80;77.60;;;;;;4994292;28;20030;-72
2023/10/10 14:38:37;;;;;;;12.27;3.17;;;22.80;76.80;;;;;;4977043;28;20026;-72
2023/10/10 14:41:03;;;;;;;15.10;3.42;;;22.80;77.80;;;;;;4994787;28;20029;-72
2023/10/10 14:43:29;;;;;;;10.93;2.95;;;22.80;77.60;;;;;;4994087;28;20026;-72
2023/10/10 14:45:54;;;;;;;11.68;2.90;;;22.90;78.50;;;;;;4976637;28;20084;-72
2023/10/10 14:48:20;;;;;;;13.60;3.30;;;22.80;78.00;;;;;;4994566;28;20118;-76
2023/10/10 14:50:57;;;;;;;11.60;2.83;;;22.80;76.80;;;;;;4976729;28;20030;-72
2023/10/10 14:53:23;;;;;;;13.20;3.10;;;22.80;77.20;;;;;;4978234;28;20113;-73
2023/10/10 14:55:51;;;;;;;14.43;3.30;;;22.80;76.80;;;;;;4993761;28;20057;-72
2023/10/10 14:58:22;;;;;;;13.32;3.30;;;22.70;77.90;;;;;;4993889;28;20014;-75
2023/10/10 15:00:56;;;;;;;12.73;3.55;;;22.60;78.90;;;;;;4993930;28;20030;-72
2023/10/10 15:03:25;;;;;;;11.38;2.95;;;22.50;77.50;;;;;;4993918;28;20034;-72
2023/10/10 15:05:51;;;;;;;15.57;3.65;;;22.50;78.30;;;;;;4993833;28;20022;-72
2023/10/10 15:08:22;;;;;;;12.40;3.33;;;22.40;78.50;;;;;;4993845;28;20030;-72
2023/10/10 15:10:53;;;;;;;7.65;2.70;;;22.40;79.60;;;;;;4993785;28;20034;-72
2023/10/10 15:13:19;;;;;;;13.43;4.05;;;22.40;78.80;;;;;;4993466;28;20026;-72
2023/10/10 15:15:45;;;;;;;16.67;4.18;;;22.40;79.30;;;;;;4993603;28;20039;-72
2023/10/10 15:18:16;;;;;;;8.85;3.35;;;22.30;81.30;;;;;;4993864;28;20027;-72
2023/10/10 15:20:48;;;;;;;12.60;3.47;;;22.30;81.30;;;;;;4993675;28;20023;-72
2023/10/10 15:23:20;;;;;;;15.07;3.25;;;22.30;81.20;;;;;;4994248;28;20744;-72
2023/10/10 15:25:56;;;;;;;12.50;3.08;;;22.20;81.80;;;;;;4993375;28;20034;-72
2023/10/10 15:28:23;;;;;;;13.85;3.58;;;22.20;83.20;;;;;;4993890;28;20087;-72
2023/10/10 15:30:49;;;;;;;12.18;3.28;;;22.20;84.00;;;;;;4993615;28;20077;-72
2023/10/10 15:33:17;;;;;;;11.32;3.70;;;22.10;83.00;;;;;;4996542;28;20027;-72
2023/10/10 15:35:52;;;;;;;13.23;4.10;;;22.00;83.90;;;;;;4997189;28;20394;-72
2023/10/10 15:38:18;;;;;;;10.93;3.08;;;21.90;83.60;;;;;;4997531;28;20077;-72
2023/10/10 15:40:44;;;;;;;9.77;3.30;;;21.90;83.90;;;;;;4996678;28;20030;-72
2023/10/10 15:43:13;;;;;;;10.85;3.35;;;21.80;84.70;;;;;;4980335;28;20458;-72